createdAt,value
2022-12-22T00:00:54.325Z,27.90
2022-12-22T00:04:06.817Z,27.90
2022-12-22T00:07:19.279Z,27.70
2022-12-22T00:10:31.789Z,27.60
2022-12-22T00:13:44.227Z,27.70
2022-12-22T00:16:58.275Z,27.90
2022-12-22T00:20:16.673Z,27.90
2022-12-22T00:23:31.580Z,27.90
2022-12-22T00:26:45.130Z,28.00
2022-12-22T00:30:01.411Z,28.10
2022-12-22T00:33:14.069Z,28.20
2022-12-22T00:36:29.867Z,28.40
2022-12-22T00:39:42.567Z,28.60
2022-12-22T00:42:55.628Z,28.50
2022-12-22T00:46:09.505Z,28.50
2022-12-22T00:49:22.500Z,28.60
2022-12-22T00:52:36.133Z,28.70
2022-12-22T00:55:52.260Z,28.80
2022-12-22T00:59:04.657Z,29.00
2022-12-22T01:02:17.318Z,29.10
2022-12-22T01:05:30.496Z,29.20
2022-12-22T01:08:42.894Z,29.30
2022-12-22T01:11:55.616Z,29.20
2022-12-22T01:15:08.199Z,29.20
2022-12-22T01:18:20.487Z,29.30
2022-12-22T01:21:40.599Z,29.30
2022-12-22T01:24:53.074Z,29.30
2022-12-22T01:28:05.661Z,29.30
2022-12-22T01:31:30.221Z,29.20
2022-12-22T01:34:42.296Z,29.40
2022-12-22T01:37:54.526Z,29.40
2022-12-22T01:41:07.016Z,29.60
2022-12-22T01:44:19.494Z,29.70
2022-12-22T01:47:54.607Z,29.70
2022-12-22T01:51:07.126Z,29.80
2022-12-22T01:54:20.673Z,29.90
2022-12-22T01:57:33.120Z,29.90
2022-12-22T02:00:45.623Z,29.80
2022-12-22T02:03:58.263Z,29.80
2022-12-22T02:07:18.432Z,29.70
2022-12-22T02:10:39.513Z,29.70
2022-12-22T02:14:33.746Z,29.80
2022-12-22T02:18:19.807Z,29.60
2022-12-22T02:21:37.932Z,29.40
2022-12-22T02:25:00.428Z,29.40
2022-12-22T02:28:15.108Z,29.40
2022-12-22T02:31:27.671Z,29.30
2022-12-22T02:34:40.239Z,29.40
2022-12-22T02:38:10.682Z,29.30
2022-12-22T02:41:41.431Z,29.20
2022-12-22T02:45:02.560Z,29.20
2022-12-22T02:48:32.988Z,29.30
2022-12-22T02:51:49.531Z,29.40
2022-12-22T02:55:05.842Z,29.30
2022-12-22T02:58:19.924Z,29.30
2022-12-22T03:01:32.541Z,29.40
2022-12-22T03:04:45.056Z,29.50
2022-12-22T03:07:58.341Z,29.50
2022-12-22T03:11:12.930Z,29.50
2022-12-22T03:14:25.502Z,29.40
2022-12-22T03:17:40.039Z,29.40
2022-12-22T03:20:52.543Z,29.20
2022-12-22T03:24:05.039Z,29.20
2022-12-22T03:26:59.319Z,29.40
2022-12-22T03:29:53.552Z,29.60
2022-12-22T03:32:47.968Z,29.80
2022-12-22T03:35:42.260Z,29.80
2022-12-22T03:38:37.084Z,29.80
2022-12-22T03:41:49.459Z,29.90
2022-12-22T03:45:01.945Z,30.00
2022-12-22T03:47:56.391Z,30.10
2022-12-22T03:50:50.667Z,30.10
2022-12-22T03:53:45.009Z,30.20
2022-12-22T03:56:39.670Z,30.10
2022-12-22T03:59:34.008Z,30.10
2022-12-22T04:02:28.491Z,30.10
2022-12-22T04:05:23.041Z,30.10
2022-12-22T04:08:17.256Z,30.20
2022-12-22T04:11:35.062Z,30.20
2022-12-22T04:14:34.231Z,30.30
2022-12-22T04:17:29.302Z,30.40
2022-12-22T04:20:27.973Z,30.30
2022-12-22T04:23:22.549Z,30.30
2022-12-22T04:26:16.830Z,30.40
2022-12-22T04:29:11.212Z,30.30
2022-12-22T04:32:05.679Z,30.30
2022-12-22T04:35:00.084Z,30.30
2022-12-22T04:37:54.430Z,30.40
2022-12-22T04:40:48.965Z,30.50
2022-12-22T04:43:43.230Z,30.50
2022-12-22T04:46:37.538Z,30.30
2022-12-22T04:49:31.818Z,30.40
2022-12-22T04:52:26.117Z,30.30
2022-12-22T04:55:20.584Z,30.30
2022-12-22T04:58:15.367Z,30.20
2022-12-22T05:01:16.064Z,30.30
2022-12-22T05:04:10.528Z,30.20
2022-12-22T05:07:04.762Z,30.30
2022-12-22T05:09:59.038Z,30.30
2022-12-22T05:12:56.591Z,30.30
2022-12-22T05:15:50.870Z,30.30
2022-12-22T05:18:47.045Z,30.10
2022-12-22T05:21:41.434Z,30.20
2022-12-22T05:24:35.651Z,30.30
2022-12-22T05:27:29.961Z,30.40
2022-12-22T05:30:24.345Z,30.40
2022-12-22T05:33:18.697Z,30.40
2022-12-22T05:36:13.179Z,30.40
2022-12-22T05:39:07.613Z,30.30
2022-12-22T05:42:01.873Z,30.10
2022-12-22T05:44:56.181Z,30.10
2022-12-22T05:47:52.792Z,30.10
2022-12-22T05:50:47.240Z,30.10
2022-12-22T05:53:42.093Z,30.20
2022-12-22T05:56:36.420Z,30.20
2022-12-22T05:59:30.711Z,30.30
2022-12-22T06:02:25.339Z,30.20
2022-12-22T06:05:20.758Z,30.00
2022-12-22T06:08:15.106Z,30.00
2022-12-22T06:11:09.337Z,30.10
2022-12-22T06:14:03.772Z,30.00
2022-12-22T06:16:58.076Z,30.00
2022-12-22T06:19:52.562Z,30.10
2022-12-22T06:22:46.812Z,30.30
2022-12-22T06:25:41.175Z,30.40
2022-12-22T06:28:35.596Z,30.50
2022-12-22T06:31:30.032Z,30.50
2022-12-22T06:34:24.513Z,30.50
2022-12-22T06:37:18.889Z,30.50
2022-12-22T06:40:13.655Z,30.40
2022-12-22T06:43:11.086Z,30.30
2022-12-22T06:46:05.422Z,30.30
2022-12-22T06:48:59.755Z,30.30
2022-12-22T06:51:54.228Z,30.20
2022-12-22T06:54:48.599Z,30.20
2022-12-22T06:57:42.886Z,30.30
2022-12-22T07:00:37.549Z,30.10
2022-12-22T07:03:31.865Z,30.00
2022-12-22T07:06:26.282Z,29.90
2022-12-22T07:09:20.530Z,29.90
2022-12-22T07:12:15.266Z,29.80
2022-12-22T07:15:11.135Z,29.70
2022-12-22T07:18:05.687Z,29.60
2022-12-22T07:21:00.515Z,29.50
2022-12-22T07:23:54.809Z,29.50
2022-12-22T07:26:49.064Z,29.40
2022-12-22T07:29:43.450Z,29.30
2022-12-22T07:32:37.675Z,29.20
2022-12-22T07:35:32.414Z,29.30
2022-12-22T07:38:26.723Z,29.40
2022-12-22T07:41:40.148Z,29.30
2022-12-22T07:44:34.360Z,29.20
2022-12-22T07:47:33.372Z,29.10
2022-12-22T07:50:29.994Z,29.20
2022-12-22T07:53:24.198Z,29.10
2022-12-22T07:56:18.491Z,29.00
2022-12-22T07:59:13.875Z,29.00
2022-12-22T08:02:08.142Z,29.00
2022-12-22T08:05:02.666Z,28.90
2022-12-22T08:07:56.950Z,28.80
2022-12-22T08:10:51.311Z,28.70
2022-12-22T08:13:45.620Z,28.50
2022-12-22T08:16:40.042Z,28.40
2022-12-22T08:19:34.463Z,28.20
2022-12-22T08:22:31.252Z,28.10
2022-12-22T08:25:25.651Z,28.10
2022-12-22T08:28:20.239Z,28.00
2022-12-22T08:31:15.018Z,27.90
2022-12-22T08:34:12.204Z,27.90
2022-12-22T08:37:07.397Z,27.80
2022-12-22T08:40:05.987Z,27.70
2022-12-22T08:43:09.207Z,27.60
2022-12-22T08:46:03.703Z,27.60
2022-12-22T08:48:57.915Z,27.60
2022-12-22T08:51:52.846Z,27.50
2022-12-22T08:54:47.134Z,27.50
2022-12-22T08:57:41.471Z,27.50
2022-12-22T09:00:35.786Z,27.50
2022-12-22T09:03:30.255Z,27.50
2022-12-22T09:06:27.524Z,27.60
2022-12-22T09:09:25.494Z,27.50
2022-12-22T09:12:20.296Z,27.40
2022-12-22T09:15:15.549Z,27.40
2022-12-22T09:18:09.751Z,27.30
2022-12-22T09:21:04.087Z,27.30
2022-12-22T09:23:59.239Z,27.20
2022-12-22T09:26:53.499Z,27.20
2022-12-22T09:29:47.721Z,27.20
2022-12-22T09:32:42.046Z,27.10
2022-12-22T09:35:36.280Z,27.00
2022-12-22T09:38:30.670Z,26.90
2022-12-22T09:41:39.541Z,26.80
2022-12-22T09:44:46.259Z,26.90
2022-12-22T09:47:42.482Z,27.00
2022-12-22T09:50:39.231Z,27.00
2022-12-22T09:53:33.873Z,26.90
2022-12-22T09:56:30.615Z,27.00
2022-12-22T09:59:28.812Z,26.90
2022-12-22T10:02:43.558Z,26.90
2022-12-22T10:05:55.378Z,26.90
2022-12-22T10:08:49.625Z,26.80
2022-12-22T10:11:52.621Z,26.80
2022-12-22T10:14:49.366Z,26.70
2022-12-22T10:17:43.596Z,26.70
2022-12-22T10:20:39.760Z,26.70
2022-12-22T10:23:36.605Z,26.60
2022-12-22T10:26:36.231Z,26.60
2022-12-22T10:29:31.265Z,26.50
2022-12-22T10:32:25.677Z,26.50
2022-12-22T10:35:20.132Z,26.50
2022-12-22T10:38:39.150Z,26.50
2022-12-22T10:41:38.810Z,26.40
2022-12-22T10:44:36.971Z,26.20
2022-12-22T10:47:31.272Z,26.10
2022-12-22T10:50:25.763Z,26.10
2022-12-22T10:53:20.032Z,26.00
2022-12-22T10:56:32.359Z,25.90
2022-12-22T10:59:26.986Z,25.70
2022-12-22T11:02:24.555Z,25.70
2022-12-22T11:05:18.867Z,25.60
2022-12-22T11:08:20.061Z,25.50
2022-12-22T11:11:41.792Z,25.30
2022-12-22T11:14:44.985Z,25.20
2022-12-22T11:17:49.841Z,25.10
2022-12-22T11:21:01.696Z,25.00
2022-12-22T11:24:25.824Z,24.80
2022-12-22T11:27:23.052Z,24.70
2022-12-22T11:30:20.081Z,24.60
2022-12-22T11:33:55.793Z,24.60
2022-12-22T11:37:14.696Z,24.60
2022-12-22T11:40:18.080Z,24.50
2022-12-22T11:43:51.628Z,24.40
2022-12-22T11:46:55.058Z,24.30
2022-12-22T11:49:55.214Z,24.20
2022-12-22T11:53:17.269Z,24.00
2022-12-22T11:56:17.451Z,23.90
2022-12-22T11:59:33.389Z,23.70
2022-12-22T12:02:42.951Z,23.70
2022-12-22T12:06:35.534Z,23.70
2022-12-22T12:09:44.960Z,23.60
2022-12-22T12:13:06.116Z,23.60
2022-12-22T12:16:26.132Z,23.40
2022-12-22T12:19:32.933Z,23.30
2022-12-22T12:23:03.953Z,23.20
2022-12-22T12:26:39.409Z,23.20
2022-12-22T12:29:46.608Z,23.10
2022-12-22T12:33:37.586Z,23.10
2022-12-22T12:36:46.345Z,22.90
2022-12-22T12:40:09.519Z,22.90
2022-12-22T12:43:06.769Z,22.90
2022-12-22T12:46:02.835Z,22.80
2022-12-22T12:48:57.575Z,22.70
2022-12-22T12:51:52.283Z,22.70
2022-12-22T12:54:50.719Z,22.60
2022-12-22T12:57:50.269Z,22.60
2022-12-22T13:00:52.541Z,22.60
2022-12-22T13:04:06.761Z,22.60
2022-12-22T13:07:01.092Z,22.60
2022-12-22T13:10:25.685Z,22.50
2022-12-22T13:13:26.077Z,22.50
2022-12-22T13:16:20.373Z,22.50
2022-12-22T13:19:24.805Z,22.50
2022-12-22T13:22:19.783Z,22.50
2022-12-22T13:25:18.468Z,22.50
2022-12-22T13:28:18.179Z,22.50
2022-12-22T13:31:23.050Z,22.50
2022-12-22T13:35:04.481Z,22.50
2022-12-22T13:37:55.453Z,22.40
2022-12-22T13:40:50.795Z,22.40
2022-12-22T13:43:50.759Z,22.40
2022-12-22T13:46:45.770Z,22.30
2022-12-22T13:50:07.861Z,22.30
2022-12-22T13:52:59.857Z,22.30
2022-12-22T13:55:54.598Z,22.20
2022-12-22T13:58:53.419Z,22.20
2022-12-22T14:01:59.071Z,22.20
2022-12-22T14:05:12.977Z,22.10
2022-12-22T14:08:08.622Z,22.10
2022-12-22T14:11:04.444Z,22.00
2022-12-22T14:13:58.696Z,22.00
2022-12-22T14:16:55.646Z,22.00
2022-12-22T14:19:52.702Z,21.90
2022-12-22T14:23:07.136Z,21.90
2022-12-22T14:26:03.123Z,21.80
2022-12-22T14:28:58.715Z,21.80
2022-12-22T14:32:04.921Z,21.70
2022-12-22T14:34:59.286Z,21.70
2022-12-22T14:38:08.712Z,21.70
2022-12-22T14:41:32.688Z,21.60
2022-12-22T14:44:34.741Z,21.60
2022-12-22T14:47:29.297Z,21.60
2022-12-22T14:50:29.296Z,21.60
2022-12-22T14:53:32.112Z,21.60
2022-12-22T14:56:29.125Z,21.50
2022-12-22T14:59:26.888Z,21.50
2022-12-22T15:02:38.274Z,21.50
2022-12-22T15:05:40.620Z,21.50
2022-12-22T15:08:42.963Z,21.40
2022-12-22T15:11:44.791Z,21.30
2022-12-22T15:14:39.806Z,21.30
2022-12-22T15:17:34.108Z,21.30
2022-12-22T15:20:35.268Z,21.20
2022-12-22T15:23:33.178Z,21.20
2022-12-22T15:26:28.896Z,21.10
2022-12-22T15:29:25.005Z,21.00
2022-12-22T15:32:19.242Z,21.00
2022-12-22T15:35:19.486Z,21.00
2022-12-22T15:38:22.459Z,20.90
2022-12-22T15:41:16.751Z,20.90
2022-12-22T15:44:11.124Z,20.90
2022-12-22T15:47:05.416Z,20.80
2022-12-22T15:49:59.619Z,20.80
2022-12-22T15:52:57.298Z,20.80
2022-12-22T15:55:54.678Z,20.80
2022-12-22T15:58:49.426Z,20.70
2022-12-22T16:01:43.849Z,20.70
2022-12-22T16:04:38.226Z,20.70
2022-12-22T16:07:33.276Z,20.60
2022-12-22T16:10:31.131Z,20.60
2022-12-22T16:13:30.985Z,20.60
2022-12-22T16:16:25.269Z,20.50
2022-12-22T16:19:20.586Z,20.50
2022-12-22T16:22:16.688Z,20.50
2022-12-22T16:25:20.139Z,20.40
2022-12-22T16:28:26.048Z,20.40
2022-12-22T16:31:25.739Z,20.40
2022-12-22T16:34:20.152Z,20.40
2022-12-22T16:37:14.437Z,20.30
2022-12-22T16:40:09.534Z,20.30
2022-12-22T16:46:29.976Z,20.30
2022-12-22T16:49:26.864Z,20.20
2022-12-22T16:52:30.683Z,20.20
2022-12-22T16:55:25.061Z,20.20
2022-12-22T16:58:19.380Z,20.10
2022-12-22T17:01:33.407Z,20.10
2022-12-22T17:04:31.909Z,20.10
2022-12-22T17:07:26.136Z,20.00
2022-12-22T17:10:22.345Z,20.00
2022-12-22T17:13:16.787Z,19.90
2022-12-22T17:16:21.672Z,20.00
2022-12-22T17:19:16.535Z,19.90
2022-12-22T17:22:26.732Z,19.80
2022-12-22T17:25:27.064Z,19.80
2022-12-22T17:28:21.604Z,19.80
2022-12-22T17:31:21.891Z,19.70
2022-12-22T17:34:20.973Z,19.70
2022-12-22T17:37:20.873Z,19.70
2022-12-22T17:40:33.092Z,19.70
2022-12-22T17:43:27.561Z,19.60
2022-12-22T17:46:23.397Z,19.60
2022-12-22T17:49:21.013Z,19.60
2022-12-22T17:52:23.929Z,19.60
2022-12-22T17:56:05.974Z,19.60
2022-12-22T17:58:44.674Z,19.60
2022-12-22T18:01:40.589Z,19.50
2022-12-22T18:04:35.120Z,19.50
2022-12-22T18:07:29.823Z,19.50
2022-12-22T18:10:28.765Z,19.40
2022-12-22T18:13:27.985Z,19.40
2022-12-22T18:16:24.252Z,19.40
2022-12-22T18:19:18.655Z,19.40
2022-12-22T18:22:19.699Z,19.30
2022-12-22T18:25:25.562Z,19.30
2022-12-22T18:28:20.411Z,19.30
2022-12-22T18:31:14.815Z,19.20
2022-12-22T18:34:09.046Z,19.20
2022-12-22T18:37:04.871Z,19.20
2022-12-22T18:39:59.107Z,19.10
2022-12-22T18:42:54.490Z,19.10
2022-12-22T18:45:49.000Z,19.10
2022-12-22T18:48:43.225Z,19.10
2022-12-22T18:51:37.567Z,19.00
2022-12-22T18:54:38.015Z,19.00
2022-12-22T18:57:32.253Z,19.00
2022-12-22T19:00:30.497Z,18.90
2022-12-22T19:03:30.245Z,18.90
2022-12-22T19:06:25.334Z,18.90
2022-12-22T19:09:19.852Z,18.90
2022-12-22T19:12:19.656Z,18.90
2022-12-22T19:15:22.519Z,18.80
2022-12-22T19:18:24.515Z,18.80
2022-12-22T19:21:21.301Z,18.80
2022-12-22T19:24:15.676Z,18.70
2022-12-22T19:27:24.353Z,18.70
2022-12-22T19:30:22.234Z,18.70
2022-12-22T19:33:42.118Z,18.70
2022-12-22T19:36:36.448Z,18.70
2022-12-22T19:39:30.810Z,18.60
2022-12-22T19:42:32.475Z,18.70
2022-12-22T19:45:35.624Z,18.60
2022-12-22T19:48:30.144Z,18.60
2022-12-22T19:51:24.540Z,18.60
2022-12-22T19:54:19.064Z,18.60
2022-12-22T19:57:21.485Z,18.60
2022-12-22T20:00:19.536Z,18.60
2022-12-22T20:03:15.238Z,18.60
2022-12-22T20:06:10.159Z,18.60
2022-12-22T20:09:04.544Z,18.50
2022-12-22T20:11:58.779Z,18.50
2022-12-22T20:14:54.487Z,18.60
2022-12-22T20:17:50.010Z,18.60
2022-12-22T20:20:45.611Z,18.50
2022-12-22T20:23:40.968Z,18.50
2022-12-22T20:26:35.837Z,18.50
2022-12-22T20:29:30.043Z,18.60
2022-12-22T20:32:27.934Z,18.60
2022-12-22T20:35:23.836Z,18.60
2022-12-22T20:38:47.795Z,18.60
2022-12-22T20:41:44.541Z,18.60
2022-12-22T20:45:02.369Z,18.70
2022-12-22T20:47:58.431Z,18.60
2022-12-22T20:50:52.691Z,18.70
2022-12-22T20:53:48.168Z,18.60
2022-12-22T20:56:43.346Z,18.70
2022-12-22T20:59:37.637Z,18.70
2022-12-22T21:02:32.209Z,18.70
2022-12-22T21:05:26.596Z,18.70
2022-12-22T21:08:26.874Z,18.70
2022-12-22T21:11:21.197Z,18.80
2022-12-22T21:14:15.505Z,18.80
2022-12-22T21:17:18.169Z,18.80
2022-12-22T21:20:24.086Z,18.80
2022-12-22T21:23:18.534Z,18.80
2022-12-22T21:26:37.092Z,18.80
2022-12-22T21:29:31.377Z,18.90
2022-12-22T21:32:25.827Z,19.00
2022-12-22T21:35:29.082Z,19.00
2022-12-22T21:38:26.181Z,19.10
2022-12-22T21:41:20.367Z,19.20
2022-12-22T21:44:14.904Z,19.30
2022-12-22T21:47:11.877Z,19.40
2022-12-22T21:50:07.277Z,19.50
2022-12-22T21:53:01.758Z,19.60
2022-12-22T21:55:57.339Z,19.60
2022-12-22T21:58:52.755Z,19.70
2022-12-22T22:01:47.932Z,19.90
2022-12-22T22:04:45.262Z,20.10
2022-12-22T22:07:42.637Z,20.50
2022-12-22T22:10:40.150Z,21.00
2022-12-22T22:13:34.578Z,21.40
2022-12-22T22:16:28.920Z,21.90
2022-12-22T22:19:23.302Z,22.30
2022-12-22T22:22:17.642Z,22.70
2022-12-22T22:25:14.013Z,23.10
2022-12-22T22:28:08.676Z,23.50
2022-12-22T22:31:03.886Z,23.80
2022-12-22T22:33:58.363Z,24.10
2022-12-22T22:36:53.608Z,24.40
2022-12-22T22:39:47.862Z,24.50
2022-12-22T22:42:42.808Z,24.70
2022-12-22T22:45:40.889Z,24.90
2022-12-22T22:48:35.090Z,24.90
2022-12-22T22:51:29.474Z,25.00
2022-12-22T22:54:23.881Z,25.20
2022-12-22T22:57:18.287Z,25.20
2022-12-22T23:00:14.864Z,25.20
2022-12-22T23:03:09.352Z,25.20
2022-12-22T23:06:09.184Z,25.30
2022-12-22T23:09:03.687Z,25.30
2022-12-22T23:11:58.044Z,25.40
2022-12-22T23:14:52.333Z,25.40
2022-12-22T23:17:46.628Z,25.50
2022-12-22T23:20:46.358Z,25.60
2022-12-22T23:23:40.719Z,25.50
2022-12-22T23:26:35.006Z,25.50
2022-12-22T23:29:29.500Z,25.50
2022-12-22T23:32:24.111Z,25.60
2022-12-22T23:35:18.465Z,25.70
2022-12-22T23:38:12.810Z,25.80
2022-12-22T23:41:10.167Z,25.90
2022-12-22T23:44:04.450Z,25.90
2022-12-22T23:46:58.835Z,25.90
2022-12-22T23:49:53.050Z,26.00
2022-12-22T23:52:49.375Z,26.00
2022-12-22T23:55:50.392Z,26.00
2022-12-22T23:58:48.215Z,26.00
